Time;durP1;ratioP1;P1;durP2;ratioP2;P2;SDS_P1;SDS_P2;PMS_P1;PMS_P2;Temp;Humidity;BMP_temperature;BMP_pressure;BME280_temperature;BME280_humidity;BME280_pressure;Samples;Min_cycle;Max_cycle;Signal;HPM_P1;HPM_P2
2022/04/10 00:01:36;;;;;;;2.72;2.40;;;1.40;36.40;;;;;;5111992;27;34513;-79
2022/04/10 00:04:02;;;;;;;2.85;2.38;;;1.50;36.20;;;;;;5111380;27;34157;-79
2022/04/10 00:06:28;;;;;;;2.72;1.98;;;1.50;36.30;;;;;;5092583;27;35630;-79
2022/04/10 00:08:54;;;;;;;1.83;1.73;;;1.60;36.30;;;;;;5092409;28;33751;-79
2022/04/10 00:11:20;;;;;;;2.13;1.92;;;1.60;36.30;;;;;;5096134;27;34279;-78
2022/04/10 00:13:45;;;;;;;3.92;2.30;;;1.60;36.40;;;;;;5114893;27;34136;-79
2022/04/10 00:16:13;;;;;;;5.10;2.40;;;1.60;36.50;;;;;;5092197;28;35538;-79
2022/04/10 00:18:39;;;;;;;4.75;2.22;;;1.70;36.50;;;;;;5092720;28;34093;-79
2022/04/10 00:21:08;;;;;;;5.38;2.28;;;1.70;36.60;;;;;;5092194;28;34231;-79
2022/04/10 00:23:34;;;;;;;3.08;2.22;;;1.70;36.70;;;;;;5129132;27;34750;-79
2022/04/10 00:26:00;;;;;;;3.08;2.38;;;1.70;36.60;;;;;;5112877;27;34953;-79
2022/04/10 00:28:26;;;;;;;2.50;2.08;;;1.80;36.40;;;;;;5095820;27;34376;-79
2022/04/10 00:30:52;;;;;;;3.80;2.38;;;1.80;36.30;;;;;;5131849;27;34393;-79
2022/04/10 00:33:18;;;;;;;2.80;2.22;;;1.80;36.50;;;;;;5096514;27;34085;-79
2022/04/10 00:35:44;;;;;;;2.20;2.00;;;1.80;36.20;;;;;;5096369;27;35802;-79
2022/04/10 00:38:11;;;;;;;3.75;2.85;;;1.80;36.40;;;;;;5111203;27;34260;-79
2022/04/10 00:40:37;;;;;;;5.70;2.50;;;1.80;36.30;;;;;;5113874;27;34314;-79
2022/04/10 00:43:03;;;;;;;3.28;2.30;;;1.80;36.50;;;;;;5106305;28;33811;-79
2022/04/10 00:45:30;;;;;;;3.42;2.25;;;1.80;36.40;;;;;;5092532;28;35766;-79
2022/04/10 00:47:56;;;;;;;3.40;2.22;;;1.80;36.50;;;;;;5071702;27;34256;-79
2022/04/10 00:50:22;;;;;;;4.13;2.17;;;1.90;36.70;;;;;;5114813;27;34007;-79
2022/04/10 00:52:49;;;;;;;5.35;2.47;;;1.80;36.60;;;;;;5126171;27;34446;-79
2022/04/10 00:55:16;;;;;;;3.95;2.47;;;1.90;36.70;;;;;;5094332;27;35726;-79
2022/04/10 00:57:44;;;;;;;2.85;2.58;;;1.90;36.60;;;;;;5097282;27;34121;-79
2022/04/10 01:00:11;;;;;;;3.35;2.60;;;1.90;36.60;;;;;;5081799;27;34393;-79
2022/04/10 01:02:39;;;;;;;3.53;2.47;;;1.90;36.50;;;;;;5131484;27;34638;-79
2022/04/10 01:05:06;;;;;;;3.97;2.95;;;1.80;36.30;;;;;;5090413;28;36198;-79
2022/04/10 01:07:33;;;;;;;4.10;2.65;;;1.80;36.50;;;;;;5126269;27;34019;-79
2022/04/10 01:09:59;;;;;;;3.58;2.38;;;1.80;37.10;;;;;;5114987;27;34203;-79
2022/04/10 01:12:25;;;;;;;2.30;2.10;;;1.70;36.90;;;;;;5113500;27;34106;-79
2022/04/10 01:14:51;;;;;;;3.85;2.80;;;1.70;36.90;;;;;;5102599;27;35869;-79
2022/04/10 01:17:19;;;;;;;2.60;2.40;;;1.70;37.00;;;;;;5108244;27;34122;-79
2022/04/10 01:19:45;;;;;;;3.17;2.55;;;1.70;37.10;;;;;;5083079;27;34220;-80
2022/04/10 01:22:34;;;;;;;6.88;2.85;;;1.70;36.60;;;;;;5116923;27;34075;-80
2022/04/10 01:25:04;;;;;;;3.05;2.55;;;1.60;36.60;;;;;;5071905;27;36162;-80
2022/04/10 01:27:36;;;;;;;3.15;2.80;;;1.60;36.60;;;;;;5103694;28;34035;-80
2022/04/10 01:30:04;;;;;;;3.50;2.88;;;1.50;36.60;;;;;;5096812;28;34142;-80
2022/04/10 01:32:30;;;;;;;3.25;2.85;;;1.40;36.60;;;;;;5098222;27;34006;-80
2022/04/10 01:34:59;;;;;;;3.38;2.80;;;1.30;36.90;;;;;;5079980;28;35958;-80
2022/04/10 01:37:27;;;;;;;3.10;2.47;;;1.30;37.10;;;;;;5065834;28;34164;-81
2022/04/10 01:39:53;;;;;;;4.55;2.70;;;1.30;37.10;;;;;;5106687;27;34464;-81
2022/04/10 01:42:19;;;;;;;2.92;2.67;;;1.20;37.00;;;;;;5094962;28;33971;-81
2022/04/10 01:44:45;;;;;;;3.05;2.30;;;1.20;37.10;;;;;;5113880;27;36106;-81
2022/04/10 01:47:11;;;;;;;3.20;2.50;;;1.10;37.10;;;;;;5097112;28;34100;-81
2022/04/10 01:49:37;;;;;;;5.50;2.33;;;1.10;37.10;;;;;;5098393;28;34113;-81
2022/04/10 01:52:04;;;;;;;3.20;2.35;;;1.10;37.10;;;;;;5119088;27;34201;-81
2022/04/10 01:54:31;;;;;;;4.10;2.60;;;1.00;37.20;;;;;;5114442;27;35623;-81
2022/04/10 01:56:57;;;;;;;3.28;2.80;;;1.00;37.50;;;;;;5114590;27;34443;-80
2022/04/10 01:59:23;;;;;;;3.95;2.45;;;0.90;37.70;;;;;;5084357;27;34257;-81
2022/04/10 02:01:49;;;;;;;3.17;2.78;;;1.00;37.80;;;;;;5112123;27;34131;-81
2022/04/10 02:04:17;;;;;;;4.07;2.53;;;0.90;37.70;;;;;;5118043;27;35540;-82
2022/04/10 02:06:43;;;;;;;2.88;2.65;;;0.90;37.70;;;;;;5117464;27;34347;-81
2022/04/10 02:09:08;;;;;;;3.13;2.78;;;0.90;37.80;;;;;;5082778;28;34375;-81
2022/04/10 02:11:34;;;;;;;3.88;2.85;;;0.90;37.80;;;;;;5096999;27;34320;-81
2022/04/10 02:14:00;;;;;;;4.28;2.83;;;0.90;37.80;;;;;;5078595;28;36411;-81
2022/04/10 02:16:26;;;;;;;3.50;2.63;;;0.80;37.90;;;;;;5079503;28;34203;-82
2022/04/10 02:18:52;;;;;;;3.58;2.90;;;0.80;38.00;;;;;;5083452;27;34220;-81
2022/04/10 02:21:18;;;;;;;2.97;2.22;;;0.80;37.80;;;;;;5079428;28;34259;-82
2022/04/10 02:23:44;;;;;;;3.50;2.47;;;0.80;37.80;;;;;;5133719;27;35248;-82
2022/04/10 02:26:11;;;;;;;3.53;2.67;;;0.80;37.70;;;;;;5100714;27;34083;-82
2022/04/10 02:28:39;;;;;;;5.25;2.28;;;0.80;37.80;;;;;;5092332;28;34153;-82
2022/04/10 02:31:05;;;;;;;4.05;2.65;;;0.80;37.80;;;;;;5129967;27;34142;-81
2022/04/10 02:33:33;;;;;;;3.00;2.70;;;0.70;37.80;;;;;;5117516;27;35433;-82
2022/04/10 02:36:00;;;;;;;4.07;2.97;;;0.70;37.80;;;;;;5079983;28;34112;-82
2022/04/10 02:38:26;;;;;;;3.47;2.45;;;0.70;37.80;;;;;;5098097;28;34166;-82
2022/04/10 02:40:52;;;;;;;2.75;2.47;;;0.70;38.00;;;;;;5109642;27;34164;-82
2022/04/10 02:43:19;;;;;;;3.47;2.67;;;0.70;37.80;;;;;;5109601;28;36081;-82
2022/04/10 02:45:45;;;;;;;4.97;2.83;;;0.70;37.80;;;;;;5115387;28;34422;-82
2022/04/10 02:48:12;;;;;;;6.70;2.97;;;0.60;37.80;;;;;;5097625;28;34599;-82
2022/04/10 02:50:38;;;;;;;3.15;2.70;;;0.60;37.80;;;;;;5115929;28;34261;-82
2022/04/10 02:53:05;;;;;;;3.45;2.88;;;0.60;38.30;;;;;;5108913;27;35766;-82
2022/04/10 02:55:31;;;;;;;3.88;2.85;;;0.60;38.20;;;;;;5117583;27;34158;-81
2022/04/10 02:57:57;;;;;;;3.85;2.80;;;0.50;38.30;;;;;;5112151;27;34371;-81
2022/04/10 03:00:23;;;;;;;2.70;2.47;;;0.60;38.30;;;;;;5119762;27;34213;-82
2022/04/10 03:02:49;;;;;;;3.80;2.63;;;0.60;38.60;;;;;;5115349;27;37005;-82
2022/04/10 03:05:15;;;;;;;3.72;3.28;;;0.60;38.80;;;;;;5116955;27;34272;-82
2022/04/10 03:07:41;;;;;;;4.18;2.78;;;0.60;38.60;;;;;;5115939;27;34036;-82
2022/04/10 03:10:08;;;;;;;5.55;2.83;;;0.60;38.40;;;;;;5117947;27;34200;-82
2022/04/10 03:12:34;;;;;;;4.32;2.53;;;0.70;38.60;;;;;;5081486;27;35535;-82
2022/04/10 03:15:00;;;;;;;3.97;2.90;;;0.70;38.30;;;;;;5117552;27;34054;-82
2022/04/10 03:17:26;;;;;;;5.57;3.20;;;0.70;38.40;;;;;;5117949;27;34188;-82
2022/04/10 03:19:51;;;;;;;4.05;2.88;;;0.80;38.40;;;;;;5100792;27;34358;-82
2022/04/10 03:22:17;;;;;;;4.53;2.90;;;0.80;39.00;;;;;;5110052;28;35845;-82
2022/04/10 03:24:43;;;;;;;3.05;2.50;;;0.80;39.10;;;;;;5100910;27;34201;-82
2022/04/10 03:27:09;;;;;;;3.40;2.90;;;0.80;39.00;;;;;;5116740;27;34245;-82
2022/04/10 03:29:35;;;;;;;5.53;3.15;;;0.90;38.80;;;;;;5101120;27;34570;-83
2022/04/10 03:32:01;;;;;;;2.63;2.30;;;0.90;38.80;;;;;;5069485;28;35730;-82
2022/04/10 03:34:27;;;;;;;4.55;2.97;;;0.90;38.80;;;;;;5115653;28;33707;-82
2022/04/10 03:36:53;;;;;;;4.30;3.10;;;0.90;38.80;;;;;;5096424;28;34270;-83
2022/04/10 03:39:19;;;;;;;5.72;3.00;;;1.00;38.80;;;;;;5096260;28;34576;-82
2022/04/10 03:41:45;;;;;;;3.70;2.65;;;1.00;38.70;;;;;;5106450;27;34293;-82
2022/04/10 03:44:11;;;;;;;3.33;2.72;;;1.00;38.80;;;;;;5063083;28;34245;-82
2022/04/10 03:46:36;;;;;;;3.17;2.50;;;1.00;39.00;;;;;;5115489;28;33713;-82
2022/04/10 03:49:02;;;;;;;3.95;2.83;;;1.10;39.10;;;;;;5124033;27;34329;-83
2022/04/10 03:51:28;;;;;;;3.92;2.78;;;1.10;39.00;;;;;;5078576;27;36012;-82
2022/04/10 03:53:54;;;;;;;3.40;2.45;;;1.10;39.00;;;;;;5096199;28;34291;-82
2022/04/10 03:56:20;;;;;;;3.30;3.00;;;1.10;38.90;;;;;;5097277;28;34100;-82
2022/04/10 03:58:46;;;;;;;3.20;2.80;;;1.10;39.10;;;;;;5116286;27;34079;-82
2022/04/10 04:01:12;;;;;;;2.80;2.53;;;1.20;39.30;;;;;;5098357;27;35934;-82
2022/04/10 04:03:38;;;;;;;3.05;2.42;;;1.20;39.50;;;;;;5115701;27;34171;-82
2022/04/10 04:06:04;;;;;;;3.53;3.13;;;1.20;39.50;;;;;;5116839;27;34241;-82
2022/04/10 04:08:30;;;;;;;3.22;2.65;;;1.30;39.50;;;;;;5113861;27;34568;-82
2022/04/10 04:10:56;;;;;;;6.30;3.05;;;1.30;39.20;;;;;;5120521;27;34248;-81
2022/04/10 04:13:22;;;;;;;4.15;3.10;;;1.30;39.10;;;;;;5096737;28;34244;-82
2022/04/10 04:15:48;;;;;;;3.47;2.63;;;1.30;39.10;;;;;;5095942;28;34180;-82
2022/04/10 04:18:14;;;;;;;3.70;2.70;;;1.30;39.00;;;;;;5102043;27;34115;-82
2022/04/10 04:20:40;;;;;;;3.85;2.90;;;1.40;39.00;;;;;;5099826;27;35518;-81
2022/04/10 04:23:06;;;;;;;3.47;2.95;;;1.40;39.10;;;;;;5083994;28;34305;-81
2022/04/10 04:25:32;;;;;;;3.35;2.80;;;1.50;39.10;;;;;;5096069;28;34173;-81
2022/04/10 04:27:58;;;;;;;4.00;2.80;;;1.40;39.20;;;;;;5091760;27;33996;-82
2022/04/10 04:30:24;;;;;;;3.63;3.08;;;1.40;39.20;;;;;;5117566;27;36004;-81
2022/04/10 04:32:51;;;;;;;4.15;2.97;;;1.40;39.30;;;;;;5094259;28;34021;-82
2022/04/10 04:35:17;;;;;;;3.95;2.78;;;1.40;39.30;;;;;;5095385;27;34089;-82
2022/04/10 04:37:43;;;;;;;3.00;2.70;;;1.50;39.30;;;;;;5119531;27;34315;-81
2022/04/10 04:40:10;;;;;;;3.92;3.15;;;1.50;39.20;;;;;;5105435;28;35423;-82
2022/04/10 04:42:36;;;;;;;3.47;2.80;;;1.50;39.60;;;;;;5066467;27;34147;-82
2022/04/10 04:45:03;;;;;;;5.35;3.30;;;1.50;39.60;;;;;;5088279;28;34447;-81
2022/04/10 04:47:29;;;;;;;3.00;2.70;;;1.50;39.50;;;;;;5082251;28;33990;-82
2022/04/10 04:49:55;;;;;;;3.05;2.53;;;1.50;40.00;;;;;;5081405;28;35896;-82
2022/04/10 04:52:21;;;;;;;4.13;2.92;;;1.50;39.40;;;;;;5082606;28;34018;-82
2022/04/10 04:54:47;;;;;;;5.25;2.75;;;1.60;39.40;;;;;;5126767;27;34199;-81
2022/04/10 04:57:13;;;;;;;3.17;2.70;;;1.60;39.40;;;;;;5101514;28;34496;-81
2022/04/10 04:59:39;;;;;;;5.65;3.30;;;1.60;39.70;;;;;;5098430;28;35739;-81
2022/04/10 05:02:05;;;;;;;3.60;3.13;;;1.60;39.60;;;;;;5105951;27;34167;-82
2022/04/10 05:04:31;;;;;;;3.60;3.13;;;1.60;39.50;;;;;;5089687;28;34142;-82
2022/04/10 05:06:57;;;;;;;3.08;2.78;;;1.60;39.60;;;;;;5090186;27;34235;-80
2022/04/10 05:09:23;;;;;;;3.83;2.92;;;1.70;39.50;;;;;;5101712;27;35698;-82
2022/04/10 05:11:49;;;;;;;4.07;2.95;;;1.70;39.50;;;;;;5096363;28;34435;-82
2022/04/10 05:14:15;;;;;;;3.22;2.72;;;1.70;39.40;;;;;;5109502;27;34460;-82
2022/04/10 05:16:41;;;;;;;2.95;2.53;;;1.70;39.70;;;;;;5132507;27;34296;-81
2022/04/10 05:19:07;;;;;;;3.97;3.00;;;1.80;39.70;;;;;;5113776;27;35740;-81
2022/04/10 05:21:32;;;;;;;3.17;2.88;;;1.80;39.70;;;;;;5119495;27;34157;-82
2022/04/10 05:23:59;;;;;;;4.43;3.20;;;1.80;39.70;;;;;;5101841;27;34232;-81
2022/04/10 05:26:25;;;;;;;3.70;2.80;;;1.80;39.70;;;;;;5137332;27;34191;-81
2022/04/10 05:28:50;;;;;;;3.85;3.13;;;1.90;39.80;;;;;;5105649;28;35617;-82
2022/04/10 05:31:16;;;;;;;5.07;3.40;;;1.90;39.70;;;;;;5099425;28;34297;-82
2022/04/10 05:33:42;;;;;;;5.43;3.20;;;1.90;39.80;;;;;;5115481;27;33800;-81
2022/04/10 05:36:08;;;;;;;4.07;2.90;;;2.00;39.60;;;;;;5117413;27;34290;-82
2022/04/10 05:38:34;;;;;;;3.53;3.05;;;2.00;39.60;;;;;;5091781;28;35466;-82
2022/04/10 05:41:00;;;;;;;3.30;2.90;;;2.00;39.50;;;;;;5112053;27;34409;-81
2022/04/10 05:43:26;;;;;;;4.63;3.33;;;2.10;39.50;;;;;;5094958;27;34226;-81
2022/04/10 05:45:52;;;;;;;6.30;3.22;;;2.10;39.50;;;;;;5098079;28;34252;-81
2022/04/10 05:48:18;;;;;;;9.25;3.20;;;2.20;39.60;;;;;;5099520;27;35611;-81
2022/04/10 05:50:44;;;;;;;3.80;3.10;;;2.20;39.70;;;;;;5117531;27;34314;-82
2022/04/10 05:53:10;;;;;;;4.90;3.28;;;2.30;39.70;;;;;;5116620;27;34252;-82
2022/04/10 05:55:36;;;;;;;3.60;3.30;;;2.30;39.70;;;;;;5117591;27;34118;-81
2022/04/10 05:58:03;;;;;;;5.35;3.33;;;2.40;39.60;;;;;;5076592;27;35897;-81
2022/04/10 06:00:29;;;;;;;3.95;3.50;;;2.50;39.70;;;;;;5100045;27;34295;-81
2022/04/10 06:02:56;;;;;;;7.32;3.38;;;2.50;39.60;;;;;;5103356;28;34207;-81
2022/04/10 06:05:22;;;;;;;4.50;3.53;;;2.60;39.50;;;;;;5128694;27;34141;-81
2022/04/10 06:07:48;;;;;;;3.78;3.30;;;2.70;39.50;;;;;;5117367;27;34178;-81
2022/04/10 06:10:15;;;;;;;6.25;3.50;;;2.70;39.30;;;;;;5118180;27;34130;-81
2022/04/10 06:12:41;;;;;;;5.95;3.47;;;2.80;39.20;;;;;;5103896;28;34258;-81
2022/04/10 06:15:07;;;;;;;4.80;3.30;;;2.80;39.20;;;;;;5108505;27;34095;-80
2022/04/10 06:17:33;;;;;;;4.20;3.35;;;2.80;39.20;;;;;;5115958;27;35682;-80
2022/04/10 06:20:00;;;;;;;4.07;3.22;;;2.90;39.30;;;;;;5115475;27;34159;-81
2022/04/10 06:22:26;;;;;;;4.13;3.72;;;3.00;39.40;;;;;;5115733;27;34162;-79
2022/04/10 06:24:53;;;;;;;5.28;3.65;;;3.00;39.30;;;;;;5109187;27;34152;-80
2022/04/10 06:27:20;;;;;;;6.13;4.45;;;3.10;39.00;;;;;;5089059;28;36091;-80
2022/04/10 06:29:47;;;;;;;5.25;4.30;;;3.10;39.80;;;;;;5094007;28;34472;-79
2022/04/10 06:32:14;;;;;;;6.43;4.43;;;3.20;38.90;;;;;;5108733;28;34438;-78
2022/04/10 06:34:40;;;;;;;6.88;4.60;;;3.40;39.00;;;;;;5113308;27;34050;-79
2022/04/10 06:37:07;;;;;;;8.15;4.95;;;3.90;38.70;;;;;;5106273;27;36063;-78
2022/04/10 06:39:34;;;;;;;7.57;5.05;;;4.50;37.70;;;;;;5087530;28;34234;-78
2022/04/10 06:42:00;;;;;;;5.82;4.90;;;5.00;36.30;;;;;;5086940;28;34549;-78
2022/04/10 06:44:26;;;;;;;5.28;4.30;;;5.60;35.30;;;;;;5101274;27;34179;-78
2022/04/10 06:46:52;;;;;;;5.28;4.38;;;6.30;34.50;;;;;;5079119;28;35778;-77
2022/04/10 06:49:19;;;;;;;5.32;4.28;;;6.90;32.90;;;;;;5086763;28;34159;-77
2022/04/10 06:51:45;;;;;;;5.28;4.03;;;7.30;31.70;;;;;;5086584;28;34109;-76
2022/04/10 06:54:11;;;;;;;4.20;3.70;;;7.70;30.80;;;;;;5085291;28;34405;-77
2022/04/10 06:56:37;;;;;;;4.88;3.58;;;7.80;30.70;;;;;;5090525;27;35643;-77
2022/04/10 06:59:02;;;;;;;8.23;4.10;;;7.70;30.30;;;;;;5125354;27;33998;-76
2022/04/10 07:01:28;;;;;;;6.82;3.97;;;7.50;30.50;;;;;;5073365;27;34200;-76
2022/04/10 07:03:54;;;;;;;4.75;3.95;;;7.10;30.90;;;;;;5125281;27;34190;-77
2022/04/10 07:06:20;;;;;;;6.38;5.53;;;6.70;31.70;;;;;;5124565;27;34453;-76
2022/04/10 07:08:47;;;;;;;5.18;4.65;;;6.60;32.60;;;;;;5090186;27;34330;-76
2022/04/10 07:11:12;;;;;;;25.92;11.57;;;6.40;33.50;;;;;;5089930;27;34421;-76
2022/04/10 07:13:38;;;;;;;10.52;6.53;;;6.40;34.00;;;;;;5106963;27;34063;-76
2022/04/10 07:16:04;;;;;;;21.90;9.13;;;6.30;34.20;;;;;;5089186;27;36631;-76
2022/04/10 07:18:30;;;;;;;100.68;35.55;;;6.20;34.40;;;;;;5089547;27;34184;-77
2022/04/10 07:20:56;;;;;;;16.58;9.10;;;6.20;34.70;;;;;;5089951;27;34133;-75
2022/04/10 07:26:05;;;;;;;5.13;4.25;;;6.20;34.60;;;;;;5124042;27;34079;-76
2022/04/10 07:28:31;;;;;;;5.20;4.55;;;6.20;34.60;;;;;;5124877;27;34346;-76
2022/04/10 07:30:59;;;;;;;7.90;4.32;;;6.20;34.80;;;;;;5089780;27;34057;-77
2022/04/10 07:33:25;;;;;;;5.00;4.30;;;6.30;35.00;;;;;;5106199;27;34212;-76
2022/04/10 07:35:51;;;;;;;5.20;4.15;;;6.50;34.80;;;;;;5088989;27;35618;-76
2022/04/10 07:38:17;;;;;;;6.03;4.28;;;6.80;34.30;;;;;;5106556;27;34263;-76
2022/04/10 07:40:43;;;;;;;4.68;4.18;;;6.90;34.20;;;;;;5106517;27;34073;-76
2022/04/10 07:43:09;;;;;;;5.32;3.72;;;7.10;34.10;;;;;;5106104;27;34658;-76
2022/04/10 07:48:17;;;;;;;4.70;4.22;;;7.30;34.10;;;;;;5094393;27;34172;-76
2022/04/10 07:50:44;;;;;;;6.70;3.88;;;7.40;34.00;;;;;;5106536;27;34105;-76
2022/04/10 07:53:10;;;;;;;4.25;3.85;;;7.50;33.90;;;;;;5106127;27;34120;-76
2022/04/10 07:55:36;;;;;;;4.65;4.10;;;7.60;34.00;;;;;;5104420;27;35479;-76
2022/04/10 07:58:02;;;;;;;4.18;3.55;;;7.70;34.00;;;;;;5092928;27;34219;-76
2022/04/10 08:00:32;;;;;;;6.43;3.75;;;7.70;34.00;;;;;;5085467;28;34013;-76
2022/04/10 08:02:59;;;;;;;4.68;3.72;;;7.80;33.80;;;;;;5105735;27;34569;-76
2022/04/10 08:05:25;;;;;;;4.65;3.58;;;7.90;33.90;;;;;;5099757;27;35661;-76
2022/04/10 08:07:51;;;;;;;5.32;3.95;;;7.90;33.90;;;;;;5094788;27;34072;-76
2022/04/10 08:10:17;;;;;;;5.78;3.85;;;7.90;33.90;;;;;;5141392;27;34426;-76
2022/04/10 08:12:44;;;;;;;5.10;3.80;;;7.90;33.90;;;;;;5109523;27;34242;-76
2022/04/10 08:15:12;;;;;;;5.63;4.25;;;8.00;33.90;;;;;;5127309;27;34491;-76
2022/04/10 08:17:40;;;;;;;5.68;3.92;;;8.10;33.90;;;;;;5109556;27;34228;-77
2022/04/10 08:20:07;;;;;;;5.70;4.53;;;8.10;33.70;;;;;;5109004;27;34105;-76
2022/04/10 08:22:36;;;;;;;10.85;6.80;;;8.30;33.90;;;;;;5092878;27;34045;-76
2022/04/10 08:25:03;;;;;;;11.10;6.72;;;8.40;33.70;;;;;;5109846;27;34417;-76
2022/04/10 08:27:30;;;;;;;5.90;4.22;;;8.60;33.80;;;;;;5109009;27;34109;-76
2022/04/10 08:29:57;;;;;;;10.40;5.88;;;8.90;33.40;;;;;;5127828;27;34073;-76
2022/04/10 08:32:23;;;;;;;7.05;3.90;;;9.20;33.20;;;;;;5127502;27;34315;-76
2022/04/10 08:34:49;;;;;;;10.55;6.93;;;9.40;32.30;;;;;;5092168;27;35787;-76
2022/04/10 08:37:15;;;;;;;7.50;4.60;;;9.60;32.20;;;;;;5125286;27;34161;-75
2022/04/10 08:39:41;;;;;;;8.63;4.07;;;9.90;31.60;;;;;;5125449;27;34200;-76
2022/04/10 08:42:08;;;;;;;6.55;4.00;;;10.30;31.60;;;;;;5127437;27;34125;-75
2022/04/10 08:44:35;;;;;;;5.10;4.00;;;10.30;30.90;;;;;;5108567;27;35790;-75
2022/04/10 08:47:01;;;;;;;6.18;3.70;;;10.40;30.60;;;;;;5074686;27;34078;-75
2022/04/10 08:49:31;;;;;;;6.65;4.57;;;10.60;31.30;;;;;;5109071;27;34127;-75
2022/04/10 08:51:59;;;;;;;6.22;3.55;;;10.90;30.40;;;;;;5075660;27;34267;-75
2022/04/10 08:54:26;;;;;;;5.25;3.50;;;11.20;29.60;;;;;;5108445;27;35629;-75
2022/04/10 08:56:52;;;;;;;4.68;3.53;;;11.40;29.30;;;;;;5091887;27;34117;-76
2022/04/10 08:59:20;;;;;;;5.60;3.53;;;11.70;29.10;;;;;;5088595;28;34199;-76
2022/04/10 09:01:51;;;;;;;7.38;3.47;;;12.20;28.80;;;;;;5077193;27;34164;-76
2022/04/10 09:04:17;;;;;;;7.80;4.22;;;12.40;28.60;;;;;;5091713;27;35766;-77
2022/04/10 09:07:00;;;;;;;6.65;3.47;;;12.40;27.80;;;;;;5108724;27;34036;-76
2022/04/10 09:09:26;;;;;;;8.85;4.97;;;12.30;24.00;;;;;;5108973;27;33989;-76
2022/04/10 09:11:54;;;;;;;9.38;4.15;;;12.10;27.70;;;;;;5108666;27;34089;-76
2022/04/10 09:14:23;;;;;;;6.97;3.53;;;12.00;28.00;;;;;;5108183;27;36689;-76
2022/04/10 09:17:13;;;;;;;17.48;8.38;;;12.00;28.40;;;;;;5087043;28;34197;-76
2022/04/10 09:19:43;;;;;;;6.22;4.15;;;12.10;25.90;;;;;;5088058;28;34151;-75
2022/04/10 09:22:27;;;;;;;5.40;4.35;;;12.10;28.20;;;;;;5105928;28;34070;-76
2022/04/10 09:25:08;;;;;;;8.77;5.07;;;12.10;26.10;;;;;;5088257;28;34297;-75
2022/04/10 09:27:37;;;;;;;5.18;3.10;;;12.10;25.80;;;;;;5082785;27;34129;-75
2022/04/10 09:30:05;;;;;;;12.10;3.47;;;11.90;28.20;;;;;;5108543;27;34194;-76
2022/04/10 09:32:47;;;;;;;9.05;3.55;;;11.90;28.50;;;;;;5107044;27;34528;-76
2022/04/10 09:35:16;;;;;;;5.53;3.25;;;12.00;25.90;;;;;;5087185;28;35805;-76
2022/04/10 09:37:45;;;;;;;5.78;3.03;;;12.20;27.90;;;;;;5101753;27;34058;-76
2022/04/10 09:40:29;;;;;;;6.60;2.72;;;12.30;27.50;;;;;;5060665;28;34314;-76
2022/04/10 09:43:04;;;;;;;5.03;2.63;;;12.30;25.00;;;;;;5106400;27;34150;-76
2022/04/10 09:45:40;;;;;;;3.53;2.80;;;12.30;27.10;;;;;;5108543;27;34376;-76
2022/04/10 09:48:22;;;;;;;8.13;2.50;;;12.30;26.90;;;;;;5090702;27;34113;-76
2022/04/10 09:50:52;;;;;;;7.85;2.63;;;12.20;24.00;;;;;;5106221;27;34046;-76
2022/04/10 09:53:18;;;;;;;6.95;2.58;;;12.00;27.10;;;;;;5107902;27;34304;-76
2022/04/10 09:55:51;;;;;;;8.82;2.78;;;12.00;27.80;;;;;;5107213;27;35761;-76
2022/04/10 09:58:19;;;;;;;4.28;2.50;;;11.90;28.00;;;;;;5125332;27;34123;-76
2022/04/10 10:00:46;;;;;;;4.25;2.80;;;11.90;27.60;;;;;;5107696;27;34304;-76
2022/04/10 10:03:13;;;;;;;4.20;2.80;;;11.90;27.60;;;;;;5090555;27;34274;-76
2022/04/10 10:05:39;;;;;;;5.75;3.25;;;11.90;27.40;;;;;;5125522;27;35008;-76
2022/04/10 10:08:07;;;;;;;5.63;2.92;;;11.90;27.60;;;;;;5103625;28;34388;-76
2022/04/10 10:10:35;;;;;;;4.82;2.70;;;11.90;27.50;;;;;;5105720;28;34350;-75
2022/04/10 10:13:03;;;;;;;3.67;2.75;;;11.90;27.30;;;;;;5070359;28;34079;-76
2022/04/10 10:15:29;;;;;;;4.30;2.75;;;11.90;27.40;;;;;;5070160;28;35672;-76
2022/04/10 10:17:55;;;;;;;6.05;2.40;;;12.00;27.40;;;;;;5121465;27;34145;-76
2022/04/10 10:20:23;;;;;;;10.07;2.63;;;12.00;26.90;;;;;;5107204;27;34228;-76
2022/04/10 10:22:49;;;;;;;5.25;2.88;;;12.00;26.50;;;;;;5107704;27;34271;-76
2022/04/10 10:25:24;;;;;;;9.93;3.03;;;12.00;26.60;;;;;;5106959;27;36925;-76
2022/04/10 10:28:19;;;;;;;6.35;2.40;;;12.10;26.10;;;;;;5125184;27;34335;-76
2022/04/10 10:31:09;;;;;;;4.53;2.50;;;12.20;23.80;;;;;;5086553;28;34099;-76
2022/04/10 10:33:38;;;;;;;6.53;2.72;;;12.30;23.40;;;;;;5070120;28;34518;-76
2022/04/10 10:36:08;;;;;;;6.72;2.40;;;12.40;25.10;;;;;;5095244;28;36613;-76
2022/04/10 10:38:34;;;;;;;5.35;2.35;;;12.30;24.70;;;;;;5116226;27;34152;-76
2022/04/10 10:41:33;;;;;;;5.88;2.20;;;12.50;25.70;;;;;;5125244;27;34202;-76
2022/04/10 10:44:16;;;;;;;4.80;2.47;;;12.70;21.40;;;;;;5121841;27;34128;-76
2022/04/10 10:46:57;;;;;;;6.03;2.55;;;12.60;20.00;;;;;;5069441;28;35615;-76
2022/04/10 10:49:23;;;;;;;4.60;2.30;;;12.70;21.80;;;;;;5093913;27;34022;-76
2022/04/10 10:51:51;;;;;;;8.23;2.42;;;12.60;24.50;;;;;;5106911;27;34064;-77
2022/04/10 10:54:34;;;;;;;3.97;2.58;;;12.70;23.80;;;;;;5089843;27;34246;-76
2022/04/10 10:57:22;;;;;;;4.95;2.28;;;12.70;22.70;;;;;;5089076;27;36297;-76
2022/04/10 10:59:51;;;;;;;3.60;2.35;;;12.60;20.90;;;;;;5093345;27;34196;-76
2022/04/10 11:02:20;;;;;;;2.53;1.85;;;12.60;23.80;;;;;;5093142;27;34001;-77
2022/04/10 11:04:49;;;;;;;3.40;2.03;;;12.70;24.00;;;;;;5106757;27;34446;-76
2022/04/10 11:07:24;;;;;;;5.05;2.00;;;12.60;22.80;;;;;;5083206;27;35735;-77
2022/04/10 11:09:58;;;;;;;4.18;1.80;;;12.60;23.30;;;;;;5107435;27;33985;-76
2022/04/10 11:12:34;;;;;;;2.95;1.83;;;12.60;22.00;;;;;;5106228;27;34221;-76
2022/04/10 11:15:11;;;;;;;6.57;1.90;;;12.60;20.20;;;;;;5101791;27;34392;-76
2022/04/10 11:17:39;;;;;;;3.95;1.80;;;12.50;20.90;;;;;;5106435;27;34479;-76
2022/04/10 11:20:09;;;;;;;3.15;1.60;;;12.50;23.40;;;;;;5103337;27;34096;-77
2022/04/10 11:22:39;;;;;;;4.60;1.60;;;12.60;23.00;;;;;;5106560;27;34435;-76
2022/04/10 11:25:08;;;;;;;4.13;1.95;;;12.70;23.20;;;;;;5106806;27;34508;-76
2022/04/10 11:27:53;;;;;;;5.60;2.00;;;13.00;21.70;;;;;;5106618;27;34150;-75
2022/04/10 11:30:25;;;;;;;4.95;1.83;;;13.60;16.90;;;;;;5103506;27;34171;-76
2022/04/10 11:32:54;;;;;;;3.45;1.42;;;13.90;19.80;;;;;;5107012;27;34153;-76
2022/04/10 11:35:25;;;;;;;2.85;1.52;;;14.10;20.20;;;;;;5106939;27;34126;-75
2022/04/10 11:37:55;;;;;;;5.40;1.85;;;14.10;18.50;;;;;;5105899;27;35591;-76
2022/04/10 11:40:24;;;;;;;3.92;1.70;;;14.00;19.00;;;;;;5094527;27;34227;-76
2022/04/10 11:42:53;;;;;;;3.58;1.60;;;13.90;19.10;;;;;;5113111;27;34297;-77
2022/04/10 11:45:20;;;;;;;5.40;2.40;;;13.80;18.70;;;;;;5113738;27;34197;-76
2022/04/10 11:47:47;;;;;;;3.35;1.60;;;13.60;20.20;;;;;;5107039;28;36091;-76
2022/04/10 11:50:13;;;;;;;2.58;1.40;;;13.70;20.10;;;;;;5076300;28;34228;-76
2022/04/10 11:52:41;;;;;;;3.08;1.73;;;13.70;20.60;;;;;;5113144;27;34514;-78
2022/04/10 11:55:08;;;;;;;5.20;1.55;;;13.70;19.50;;;;;;5133383;27;34058;-78
2022/04/10 11:57:39;;;;;;;3.65;1.45;;;13.60;19.90;;;;;;5092869;28;35639;-76
2022/04/10 12:00:09;;;;;;;2.15;1.30;;;13.60;17.40;;;;;;5092946;28;34270;-76
2022/04/10 12:02:37;;;;;;;4.30;1.30;;;13.50;19.50;;;;;;5111637;27;34383;-78
2022/04/10 12:05:03;;;;;;;4.45;1.10;;;13.50;19.60;;;;;;5075893;28;34035;-77
2022/04/10 12:07:29;;;;;;;3.20;1.17;;;13.60;19.50;;;;;;5114279;27;34365;-77
2022/04/10 12:09:55;;;;;;;4.45;1.35;;;13.70;19.30;;;;;;5112761;27;34310;-76
2022/04/10 12:12:35;;;;;;;7.40;2.05;;;13.80;18.80;;;;;;5130198;27;34545;-76
2022/04/10 12:15:02;;;;;;;4.10;1.95;;;14.00;16.80;;;;;;5108601;28;34089;-76
2022/04/10 12:17:28;;;;;;;5.53;1.75;;;14.20;19.00;;;;;;5103092;27;35844;-76
2022/04/10 12:19:55;;;;;;;4.00;1.85;;;14.20;18.40;;;;;;5106759;27;34125;-76
2022/04/10 12:22:22;;;;;;;5.35;2.05;;;14.30;18.20;;;;;;5118030;27;34296;-76
2022/04/10 12:24:49;;;;;;;5.50;1.90;;;14.50;18.40;;;;;;5115691;27;34267;-77
2022/04/10 12:27:17;;;;;;;2.67;1.90;;;14.70;18.50;;;;;;5104611;27;35365;-76
2022/04/10 12:29:43;;;;;;;2.17;1.70;;;14.70;18.00;;;;;;5131291;27;34097;-76
2022/04/10 12:32:10;;;;;;;2.35;1.40;;;14.70;18.20;;;;;;5093654;28;34217;-76
2022/04/10 12:34:42;;;;;;;2.47;1.83;;;14.50;18.00;;;;;;5092193;28;34271;-76
2022/04/10 12:37:10;;;;;;;2.15;1.52;;;14.30;16.60;;;;;;5084313;27;36637;-76
2022/04/10 12:39:37;;;;;;;3.10;1.60;;;14.20;17.00;;;;;;5095423;27;34113;-75
2022/04/10 12:42:10;;;;;;;5.45;2.00;;;13.90;17.40;;;;;;5112490;27;34132;-77
2022/04/10 12:44:40;;;;;;;2.63;1.52;;;13.70;14.60;;;;;;5112436;27;34194;-78
2022/04/10 12:47:07;;;;;;;3.17;1.60;;;13.50;17.60;;;;;;5123308;27;34319;-76
2022/04/10 12:49:34;;;;;;;2.88;1.70;;;13.30;18.30;;;;;;5092424;28;34147;-75
2022/04/10 12:52:04;;;;;;;1.23;1.13;;;13.20;18.50;;;;;;5091514;27;34530;-76
2022/04/10 12:54:36;;;;;;;3.83;1.30;;;13.10;18.00;;;;;;5109449;27;34406;-76
2022/04/10 12:57:04;;;;;;;4.20;1.50;;;13.00;17.20;;;;;;5086671;28;36056;-76
2022/04/10 12:59:48;;;;;;;3.03;1.15;;;13.10;18.60;;;;;;5123098;27;34249;-76
2022/04/10 13:02:29;;;;;;;2.17;1.42;;;13.10;16.40;;;;;;5104134;28;34368;-76